Latest Weather Observations for Parndana

IDS60801

Issued at 10:35 pm CDT Wednesday 22 October 2014 (issued every 30 minutes, with the page automatically refreshed every 10 minutes)

About weather observations | Map of weather stations | Latest weather observations for SA | Other Formats
Station Details ID: 022843 Name: PARNDANA CFS AWS Lat: -35.79 Lon: 137.25 Height: 165.0 m
Data from the previous 72 hours. | See also: Recent months at Parndana
Date/Time
CDT
Temp
°C
App
Temp
°C
Dew
Point
Rel
Hum
%
Delta-T
°C
Wind Press
QNH
hPa
Press
MSL
hPa
Rain
since 9 am
mm
Dir
 
Spd
km/h
Gust
km/h
Spd
kts
Gust
kts
22/10:30pm 12.3 8.7 11.7 96 0.3 SSE 22 32 12 17 - - 0.0
22/10:00pm 12.3 8.7 11.7 96 0.3 SSE 22 28 12 15 - - 0.0
22/09:30pm 12.5 8.9 11.7 95 0.4 SSE 22 28 12 15 - - 0.0
22/09:00pm 12.7 8.6 11.6 93 0.6 SSE 24 33 13 18 - - 0.0
22/08:30pm 12.7 8.6 11.6 93 0.6 SSE 24 32 13 17 - - 0.0
22/08:00pm 12.9 8.4 11.5 91 0.7 SSE 26 32 14 17 - - 0.0
22/07:30pm 13.0 8.9 11.6 91 0.7 S 24 35 13 19 - - 0.0
22/07:00pm 13.3 9.7 11.7 90 0.9 S 22 32 12 17 - - 0.0
22/06:30pm 13.8 9.0 11.8 88 1.1 S 28 39 15 21 - - 0.0
22/06:00pm 14.2 9.1 11.9 86 1.2 S 30 39 16 21 - - 0.0
22/05:30pm 14.8 9.7 11.8 82 1.6 S 30 37 16 20 - - 0.0
22/05:00pm 15.3 10.8 12.6 84 1.5 S 28 39 15 21 - - 0.0
22/04:30pm 14.6 9.7 12.5 87 1.2 S 30 43 16 23 - - 0.0
22/04:00pm 14.6 10.6 13.0 90 0.9 S 26 37 14 20 - - 0.0
22/03:30pm 14.7 9.8 12.6 87 1.2 S 30 41 16 22 - - 0.0
22/03:00pm 14.9 10.5 12.8 87 1.2 S 28 37 15 20 - - 0.0
22/02:30pm 15.5 11.6 13.3 87 1.2 S 26 35 14 19 - - 0.0
22/02:00pm 14.8 10.9 13.2 90 0.9 S 26 35 14 19 - - 0.0
22/01:30pm 14.8 10.4 13.0 89 1.0 S 28 37 15 20 - - 0.0
22/01:00pm 14.8 10.7 12.8 88 1.1 S 26 35 14 19 - - 0.0
22/12:30pm 15.1 10.7 13.0 87 1.2 S 28 39 15 21 - - 0.0
22/12:00pm 14.4 10.0 13.0 91 0.8 S 28 39 15 21 - - 0.0
22/11:30am 14.3 9.2 13.0 92 0.7 S 32 41 17 22 - - 0.0
22/11:00am 14.3 9.6 13.2 93 0.6 SSW 30 43 16 23 - - 0.0
22/10:30am 15.7 10.2 12.5 81 1.8 S 33 43 18 23 - - 0.0
22/10:00am 16.6 12.6 12.9 79 2.1 S 26 37 14 20 - - 0.0
22/09:30am 15.7 11.6 12.8 83 1.6 SSW 26 35 14 19 - - 0.0
22/09:00am 15.7 11.5 13.4 86 1.3 SSW 28 35 15 19 - - 0.0
22/08:30am 14.8 10.9 13.2 90 0.9 SSW 26 39 14 21 - - 0.0
22/08:00am 13.9 9.2 13.1 95 0.4 SSW 30 43 16 23 - - 0.0
22/07:30am 13.4 9.3 12.8 96 0.3 SSW 26 39 14 21 - - 0.0
22/07:00am 13.2 9.5 12.6 96 0.3 SSW 24 32 13 17 - - 0.0
22/06:30am 13.3 9.9 12.5 95 0.4 SSW 22 32 12 17 - - 0.0
22/06:00am 13.4 10.4 12.5 94 0.5 SSW 20 30 11 16 - - 0.0
22/05:30am 13.6 10.7 12.2 91 0.8 SSW 19 26 10 14 - - 0.0
22/05:00am 14.2 11.2 12.1 87 1.1 SSW 19 28 10 15 - - 0.0
22/04:30am 14.9 11.8 11.5 80 1.8 S 19 26 10 14 - - 0.0
22/04:00am 15.1 11.7 11.1 77 2.1 SSW 20 26 11 14 - - 0.0
22/03:30am 15.3 11.5 11.1 76 2.3 SSW 22 28 12 15 - - 0.0
22/03:00am 15.7 11.5 11.1 74 2.5 SSW 24 32 13 17 - - 0.0
22/02:30am 16.3 12.5 11.2 72 2.8 SSW 22 30 12 16 - - 0.0
22/02:00am 18.0 13.5 9.9 59 4.3 SW 24 33 13 18 - - 0.0
22/01:30am 18.5 13.8 7.9 50 5.5 SW 22 32 12 17 - - 0.0
22/01:00am 18.9 15.4 7.4 47 5.9 E 15 20 8 11 - - 0.0
22/12:30am 17.4 15.3 9.6 60 4.1 ENE 11 19 6 10 - - 0.0
22/12:00am 18.3 16.0 9.1 55 4.8 E 11 17 6 9 - - 0.0
 
Date/Time
CDT
Temp
°C
App
Temp
°C
Dew
Point
Rel
Hum
%
Delta-T
°C
Wind Press
QNH
hPa
Press
MSL
hPa
Rain
since 9 am
mm
Dir
 
Spd
km/h
Gust
km/h
Spd
kts
Gust
kts
21/11:30pm 19.9 16.1 7.6 45 6.4 S 17 26 9 14 - - 0.0
21/11:00pm 19.1 16.8 9.0 52 5.3 SW 11 15 6 8 - - 0.0
21/10:30pm 18.1 15.4 10.2 60 4.2 SSW 15 19 8 10 - - 0.0
21/10:00pm 18.9 14.2 10.7 59 4.5 SSW 26 33 14 18 - - 0.0
21/09:30pm 19.8 16.2 10.0 53 5.3 S 19 22 10 12 - - 0.0
21/09:00pm 21.6 17.7 8.5 43 7.0 SSW 19 26 10 14 - - 0.0
21/08:30pm 22.3 20.0 7.3 38 7.8 S 9 13 5 7 - - 0.0
21/08:00pm 25.7 23.0 3.6 24 11.0 NNE 7 9 4 5 - - 0.0
21/07:30pm 27.2 24.4 3.0 21 12.0 N 7 7 4 4 - - 0.0
21/07:00pm 26.9 24.0 4.6 24 11.4 NNW 9 11 5 6 - - 0.0
21/06:30pm 27.2 24.5 5.5 25 11.3 NNW 9 13 5 7 - - 0.0
21/06:00pm 29.1 25.7 3.9 20 12.9 N 11 15 6 8 - - 0.0
21/05:30pm 30.9 27.9 6.0 21 13.3 N 11 17 6 9 - - 0.0
21/05:00pm 30.6 27.2 5.8 21 13.2 N 13 19 7 10 - - 0.0
21/04:30pm 30.3 26.7 4.9 20 13.3 NNW 13 17 7 9 - - 0.0
21/04:00pm 30.6 25.8 2.8 17 14.1 NNW 17 26 9 14 - - 0.0
21/03:30pm 31.2 26.0 3.3 17 14.3 NNW 20 32 11 17 - - 0.0
21/03:00pm 32.9 27.9 3.8 16 15.2 N 19 26 10 14 - - 0.0
21/02:30pm 32.5 27.4 5.9 19 14.3 NNW 22 30 12 16 - - 0.0
21/02:00pm 31.6 27.0 6.6 21 13.6 N 20 33 11 18 - - 0.0
21/01:30pm 31.3 27.0 7.1 22 13.2 N 19 30 10 16 - - 0.0
21/01:00pm 30.1 25.8 7.9 25 12.2 N 20 28 11 15 - - 0.0
21/12:30pm 28.1 24.2 9.4 31 10.4 NNE 20 26 11 14 - - 0.0
21/12:00pm 25.6 21.6 9.0 35 9.1 NNE 20 28 11 15 - - 0.0
21/11:30am 24.4 20.1 7.1 33 9.1 NNE 19 28 10 15 - - 0.0
21/11:00am 23.9 19.5 7.5 35 8.7 NNE 20 26 11 14 - - 0.0
21/10:30am 23.9 18.6 6.7 33 9.0 NNE 24 33 13 18 - - 0.0
21/10:00am 24.0 19.3 7.6 35 8.7 NNE 22 35 12 19 - - 0.0
21/09:30am 23.8 18.6 7.4 35 8.6 N 24 33 13 18 - - 0.0
21/09:00am 21.9 17.7 7.3 39 7.6 NNE 19 30 10 16 - - 0.0
21/08:30am 22.0 17.7 7.8 40 7.5 NNE 20 28 11 15 - - 0.0
21/08:00am 20.7 16.1 6.6 40 7.2 NNE 20 30 11 16 - - 0.0
21/07:30am 20.1 15.8 7.8 45 6.4 NNE 20 30 11 16 - - 0.0
21/07:00am 19.1 14.9 7.5 47 6.0 NNE 19 26 10 14 - - 0.0
21/06:30am 18.0 15.0 7.7 51 5.3 NNE 13 19 7 10 - - 0.0
21/06:00am 18.1 14.8 8.1 52 5.2 NNE 15 22 8 12 - - 0.0
21/05:30am 17.4 14.3 8.8 57 4.5 NE 15 22 8 12 - - 0.0
21/05:00am 16.1 13.4 9.1 63 3.6 NE 13 19 7 10 - - 0.0
21/04:30am 15.9 13.0 9.8 67 3.2 NE 15 19 8 10 - - 0.0
21/04:00am 14.1 11.1 9.3 73 2.5 NE 15 19 8 10 - - 0.0
21/03:30am 12.9 10.6 9.0 77 2.0 NE 11 17 6 9 - - 0.0
21/03:00am 11.7 10.8 9.4 86 1.2 E 4 4 2 2 - - 0.0
21/02:30am 11.6 10.9 9.9 89 0.9 ENE 4 7 2 4 - - 0.0
21/02:00am 12.1 12.2 10.0 87 1.1 CALM 0 0 0 0 - - 0.0
21/01:30am 11.9 11.2 10.0 88 1.0 SSE 4 6 2 3 - - 0.0
21/01:00am 12.5 11.8 10.2 86 1.2 ESE 4 9 2 5 - - 0.0
21/12:30am 12.6 12.0 10.3 86 1.2 ESE 4 6 2 3 - - 0.0
21/12:00am 14.5 11.8 10.5 77 2.1 E 15 26 8 14 - - 0.0
 
Date/Time
CDT
Temp
°C
App
Temp
°C
Dew
Point
Rel
Hum
%
Delta-T
°C
Wind Press
QNH
hPa
Press
MSL
hPa
Rain
since 9 am
mm
Dir
 
Spd
km/h
Gust
km/h
Spd
kts
Gust
kts
20/11:30pm 13.0 11.1 10.5 85 1.3 E 11 13 6 7 - - 0.0
20/11:00pm 13.4 11.1 10.6 83 1.5 E 13 17 7 9 - - 0.0
20/10:30pm 14.0 10.7 11.0 82 1.6 E 19 22 10 12 - - 0.0
20/10:00pm 13.5 10.2 11.0 85 1.3 E 19 24 10 13 - - 0.0
20/09:30pm 13.1 10.3 11.2 88 1.0 E 17 20 9 11 - - 0.0
20/09:00pm 13.0 10.5 11.2 89 1.0 ESE 15 20 8 11 - - 0.0
20/08:30pm 12.8 9.9 10.9 88 1.0 ESE 17 20 9 11 - - 0.0
20/08:00pm 13.1 10.9 10.8 86 1.2 ESE 13 17 7 9 - - 0.0
20/07:30pm 13.8 11.7 11.0 83 1.5 ESE 13 17 7 9 - - 0.0
20/07:00pm 15.2 12.7 11.2 77 2.2 ESE 15 20 8 11 - - 0.0
20/06:30pm 16.0 12.8 11.4 74 2.5 ESE 19 22 10 12 - - 0.0
20/06:00pm 17.3 14.7 12.0 71 2.9 E 17 22 9 12 - - 0.0
20/05:30pm 17.7 14.6 11.7 68 3.3 ESE 19 24 10 13 - - 0.0
20/05:00pm 18.1 15.0 12.1 68 3.3 ESE 20 28 11 15 - - 0.0
20/04:30pm 18.7 15.9 12.5 67 3.5 ESE 19 26 10 14 - - 0.0
20/04:00pm 18.4 14.9 12.2 67 3.5 ESE 22 28 12 15 - - 0.0
20/03:30pm 18.6 15.2 12.6 68 3.4 ESE 22 28 12 15 - - 0.0
20/03:00pm 18.0 14.5 12.2 69 3.2 ESE 22 28 12 15 - - 0.0
20/02:30pm 18.2 14.6 12.0 67 3.4 ESE 22 30 12 16 - - 0.0
20/02:00pm 18.7 15.5 13.1 70 3.2 ESE 22 30 12 16 - - 0.0
20/01:30pm 18.1 14.8 12.8 71 3.0 ESE 22 30 12 16 - - 0.0
20/01:00pm 17.0 13.4 11.7 71 2.9 ESE 22 30 12 16 - - 0.0
20/12:30pm 16.8 13.5 11.7 72 2.8 ESE 20 26 11 14 - - 0.0
20/12:00pm 16.1 12.8 11.7 75 2.4 ESE 20 26 11 14 - - 0.0
20/11:30am 15.7 11.6 11.5 76 2.3 ESE 24 32 13 17 - - 0.0
20/11:00am 16.2 12.3 12.0 76 2.3 ESE 24 32 13 17 - - 0.0
20/10:30am 15.9 11.5 11.7 76 2.3 ESE 26 35 14 19 - - 0.0
20/10:00am 15.2 10.2 11.0 76 2.3 E 28 37 15 20 - - 0.0
20/09:30am 15.1 11.0 11.3 78 2.0 E 24 35 13 19 - - 0.0
20/09:00am 13.8 8.7 10.6 81 1.7 ESE 28 37 15 20 - - 0.2
20/08:30am 12.7 6.5 10.2 85 1.3 ESE 33 44 18 24 - - 0.2
20/08:00am 12.3 7.1 10.2 87 1.1 ESE 28 43 15 23 - - 0.2
20/07:30am 12.1 6.5 10.0 87 1.1 ESE 30 44 16 24 - - 0.2
20/07:00am 11.9 5.8 9.8 87 1.1 ESE 32 44 17 24 - - 0.2
20/06:30am 11.8 6.5 9.7 87 1.1 E 28 48 15 26 - - 0.2
20/06:00am 11.9 6.2 9.8 87 1.1 ESE 30 41 16 22 - - 0.2
20/05:30am 12.0 5.9 9.7 86 1.2 ESE 32 54 17 29 - - 0.2
20/05:28am 12.0 6.3 9.7 86 1.2 ESE 30 54 16 29 - - 0.2
20/05:00am 12.1 6.8 10.0 87 1.1 ESE 28 39 15 21 - - 0.2
20/04:30am 12.1 6.0 9.7 85 1.2 ESE 32 50 17 27 - - 0.2
20/04:15am 12.2 6.5 9.8 85 1.2 ESE 30 50 16 27 - - 0.2
20/04:00am 12.2 6.9 9.9 86 1.2 ESE 28 41 15 22 - - 0.2
20/03:30am 12.4 5.8 10.0 85 1.2 ESE 35 50 19 27 - - 0.2
20/03:00am 12.4 7.2 10.1 86 1.2 ESE 28 39 15 21 - - 0.2
20/02:30am 12.3 6.4 10.4 88 1.0 ESE 32 41 17 22 - - 0.2
20/02:00am 12.2 6.2 10.1 87 1.1 ESE 32 44 17 24 - - 0.2
20/01:49am 12.1 6.9 10.2 88 1.0 ESE 28 50 15 27 - - 0.2
20/01:30am 12.2 6.6 10.3 88 1.0 SE 30 41 16 22 - - 0.2
20/01:00am 12.2 7.0 10.3 88 1.0 SE 28 37 15 20 - - 0.2
20/12:30am 12.0 6.8 10.1 88 1.0 SE 28 39 15 21 - - 0.2
20/12:00am 12.0 6.3 9.9 87 1.1 SE 30 37 16 20 - - 0.2
 
Date/Time
CDT
Temp
°C
App
Temp
°C
Dew
Point
Rel
Hum
%
Delta-T
°C
Wind Press
QNH
hPa
Press
MSL
hPa
Rain
since 9 am
mm
Dir
 
Spd
km/h
Gust
km/h
Spd
kts
Gust
kts
19/11:30pm 12.3 7.1 10.2 87 1.1 SE 28 41 15 22 - - 0.2
19/11:00pm 12.1 7.2 10.0 87 1.1 SE 26 39 14 21 - - 0.2

Other Formats:

Comma delimited format used in spreadsheet applications
http://www.bom.gov.au/fwo/IDS60801/IDS60801.94807.axf

JavaScript Object Notation format (JSON) in row-major order
http://www.bom.gov.au/fwo/IDS60801/IDS60801.94807.json